sensor_id;sensor_type;location;lat;lon;timestamp;P1;durP1;ratioP1;P2;durP2;ratioP2
35522;SDS011;61478;50.820;4.330;2023-08-06T00:00:39;5.88;;;2.50;;
35522;SDS011;61478;50.820;4.330;2023-08-06T00:03:05;7.15;;;3.00;;
35522;SDS011;61478;50.820;4.330;2023-08-06T00:05:31;8.18;;;2.90;;
35522;SDS011;61478;50.820;4.330;2023-08-06T00:07:57;6.72;;;2.85;;
35522;SDS011;61478;50.820;4.330;2023-08-06T00:10:23;9.82;;;3.28;;
35522;SDS011;61478;50.820;4.330;2023-08-06T00:12:49;9.60;;;3.05;;
35522;SDS011;61478;50.820;4.330;2023-08-06T00:15:15;7.85;;;3.03;;
35522;SDS011;61478;50.820;4.330;2023-08-06T00:17:41;5.93;;;2.60;;
35522;SDS011;61478;50.820;4.330;2023-08-06T00:20:07;8.73;;;3.30;;
35522;SDS011;61478;50.820;4.330;2023-08-06T00:22:34;8.85;;;3.72;;
35522;SDS011;61478;50.820;4.330;2023-08-06T00:25:01;6.38;;;3.10;;
35522;SDS011;61478;50.820;4.330;2023-08-06T00:27:28;9.90;;;3.30;;
35522;SDS011;61478;50.820;4.330;2023-08-06T00:29:54;7.13;;;3.67;;
35522;SDS011;61478;50.820;4.330;2023-08-06T00:32:21;10.60;;;3.00;;
35522;SDS011;61478;50.820;4.330;2023-08-06T00:34:47;9.00;;;4.22;;
35522;SDS011;61478;50.820;4.330;2023-08-06T00:37:15;7.40;;;3.55;;
35522;SDS011;61478;50.820;4.330;2023-08-06T00:39:41;13.00;;;4.55;;
35522;SDS011;61478;50.820;4.330;2023-08-06T00:42:08;10.73;;;4.07;;
35522;SDS011;61478;50.820;4.330;2023-08-06T00:44:35;9.18;;;4.93;;
35522;SDS011;61478;50.820;4.330;2023-08-06T00:47:01;16.40;;;5.70;;
35522;SDS011;61478;50.820;4.330;2023-08-06T00:49:27;9.13;;;4.80;;
35522;SDS011;61478;50.820;4.330;2023-08-06T00:51:53;11.25;;;5.50;;
35522;SDS011;61478;50.820;4.330;2023-08-06T00:54:21;8.73;;;5.18;;
35522;SDS011;61478;50.820;4.330;2023-08-06T00:56:48;9.02;;;5.07;;
35522;SDS011;61478;50.820;4.330;2023-08-06T00:59:14;11.90;;;5.82;;
35522;SDS011;61478;50.820;4.330;2023-08-06T01:01:40;10.60;;;6.32;;
35522;SDS011;61478;50.820;4.330;2023-08-06T01:04:06;13.40;;;6.65;;
35522;SDS011;61478;50.820;4.330;2023-08-06T01:06:46;14.10;;;6.43;;
35522;SDS011;61478;50.820;4.330;2023-08-06T01:11:44;11.15;;;6.70;;
35522;SDS011;61478;50.820;4.330;2023-08-06T01:14:30;12.23;;;7.00;;
35522;SDS011;61478;50.820;4.330;2023-08-06T01:17:07;12.40;;;6.40;;
35522;SDS011;61478;50.820;4.330;2023-08-06T01:19:34;16.52;;;7.25;;
35522;SDS011;61478;50.820;4.330;2023-08-06T01:22:00;17.25;;;7.28;;
35522;SDS011;61478;50.820;4.330;2023-08-06T01:24:26;11.23;;;6.95;;
35522;SDS011;61478;50.820;4.330;2023-08-06T01:26:55;13.65;;;7.05;;
35522;SDS011;61478;50.820;4.330;2023-08-06T01:29:54;14.25;;;8.00;;
35522;SDS011;61478;50.820;4.330;2023-08-06T01:32:37;11.52;;;6.95;;
35522;SDS011;61478;50.820;4.330;2023-08-06T01:35:07;15.82;;;8.02;;
35522;SDS011;61478;50.820;4.330;2023-08-06T01:37:37;15.98;;;9.10;;
35522;SDS011;61478;50.820;4.330;2023-08-06T01:40:09;16.98;;;6.88;;
35522;SDS011;61478;50.820;4.330;2023-08-06T01:42:37;12.57;;;6.07;;
35522;SDS011;61478;50.820;4.330;2023-08-06T01:45:03;11.75;;;7.10;;
35522;SDS011;61478;50.820;4.330;2023-08-06T01:47:29;11.77;;;6.90;;
35522;SDS011;61478;50.820;4.330;2023-08-06T01:49:55;11.90;;;6.78;;
35522;SDS011;61478;50.820;4.330;2023-08-06T01:52:21;15.30;;;6.88;;
35522;SDS011;61478;50.820;4.330;2023-08-06T01:54:47;10.88;;;5.50;;
35522;SDS011;61478;50.820;4.330;2023-08-06T01:57:12;12.77;;;5.28;;
35522;SDS011;61478;50.820;4.330;2023-08-06T01:59:38;12.25;;;4.32;;
35522;SDS011;61478;50.820;4.330;2023-08-06T02:02:04;16.80;;;4.45;;
35522;SDS011;61478;50.820;4.330;2023-08-06T02:04:30;6.75;;;3.40;;
35522;SDS011;61478;50.820;4.330;2023-08-06T02:06:56;9.38;;;3.53;;
35522;SDS011;61478;50.820;4.330;2023-08-06T02:09:22;11.52;;;2.75;;
35522;SDS011;61478;50.820;4.330;2023-08-06T02:11:48;8.93;;;2.53;;
35522;SDS011;61478;50.820;4.330;2023-08-06T02:14:13;9.73;;;2.53;;
35522;SDS011;61478;50.820;4.330;2023-08-06T02:16:39;14.65;;;3.67;;
35522;SDS011;61478;50.820;4.330;2023-08-06T02:19:05;9.30;;;2.30;;
35522;SDS011;61478;50.820;4.330;2023-08-06T02:21:31;10.98;;;3.15;;
35522;SDS011;61478;50.820;4.330;2023-08-06T02:23:57;8.45;;;2.30;;
35522;SDS011;61478;50.820;4.330;2023-08-06T02:26:23;13.50;;;3.20;;
35522;SDS011;61478;50.820;4.330;2023-08-06T02:28:49;7.72;;;2.33;;
35522;SDS011;61478;50.820;4.330;2023-08-06T02:31:15;5.47;;;2.22;;
35522;SDS011;61478;50.820;4.330;2023-08-06T02:33:41;5.97;;;2.20;;
35522;SDS011;61478;50.820;4.330;2023-08-06T02:36:07;6.15;;;2.15;;
35522;SDS011;61478;50.820;4.330;2023-08-06T02:38:33;7.20;;;2.17;;
35522;SDS011;61478;50.820;4.330;2023-08-06T02:41:01;8.73;;;2.60;;
35522;SDS011;61478;50.820;4.330;2023-08-06T02:43:28;9.82;;;2.03;;
35522;SDS011;61478;50.820;4.330;2023-08-06T02:45:56;7.30;;;3.17;;
35522;SDS011;61478;50.820;4.330;2023-08-06T02:48:23;13.32;;;2.75;;
35522;SDS011;61478;50.820;4.330;2023-08-06T02:50:48;9.05;;;2.65;;
35522;SDS011;61478;50.820;4.330;2023-08-06T02:53:14;10.43;;;2.75;;
35522;SDS011;61478;50.820;4.330;2023-08-06T02:55:50;12.63;;;2.00;;
35522;SDS011;61478;50.820;4.330;2023-08-06T02:58:17;7.40;;;2.20;;
35522;SDS011;61478;50.820;4.330;2023-08-06T03:00:47;5.40;;;2.15;;
35522;SDS011;61478;50.820;4.330;2023-08-06T03:03:28;15.43;;;3.67;;
35522;SDS011;61478;50.820;4.330;2023-08-06T03:05:55;10.35;;;3.38;;
35522;SDS011;61478;50.820;4.330;2023-08-06T03:08:21;16.90;;;3.35;;
35522;SDS011;61478;50.820;4.330;2023-08-06T03:10:50;11.93;;;3.38;;
35522;SDS011;61478;50.820;4.330;2023-08-06T03:13:17;9.77;;;3.08;;
35522;SDS011;61478;50.820;4.330;2023-08-06T03:15:43;14.93;;;4.50;;
35522;SDS011;61478;50.820;4.330;2023-08-06T03:18:17;12.57;;;5.43;;
35522;SDS011;61478;50.820;4.330;2023-08-06T03:20:44;10.98;;;7.30;;
35522;SDS011;61478;50.820;4.330;2023-08-06T03:23:10;12.65;;;9.15;;
35522;SDS011;61478;50.820;4.330;2023-08-06T03:25:36;14.88;;;10.40;;
35522;SDS011;61478;50.820;4.330;2023-08-06T03:28:02;15.93;;;10.73;;
35522;SDS011;61478;50.820;4.330;2023-08-06T03:30:28;14.85;;;10.07;;
35522;SDS011;61478;50.820;4.330;2023-08-06T03:32:54;18.15;;;10.38;;
35522;SDS011;61478;50.820;4.330;2023-08-06T03:35:20;15.05;;;10.40;;
35522;SDS011;61478;50.820;4.330;2023-08-06T03:37:46;12.30;;;8.85;;
35522;SDS011;61478;50.820;4.330;2023-08-06T03:40:12;7.20;;;4.88;;
35522;SDS011;61478;50.820;4.330;2023-08-06T03:42:37;9.95;;;4.60;;
35522;SDS011;61478;50.820;4.330;2023-08-06T03:45:03;12.90;;;4.82;;
35522;SDS011;61478;50.820;4.330;2023-08-06T03:47:29;6.38;;;3.65;;
35522;SDS011;61478;50.820;4.330;2023-08-06T03:49:55;4.20;;;2.67;;
35522;SDS011;61478;50.820;4.330;2023-08-06T03:52:21;5.70;;;1.85;;
35522;SDS011;61478;50.820;4.330;2023-08-06T03:54:47;7.53;;;2.33;;
35522;SDS011;61478;50.820;4.330;2023-08-06T03:57:13;5.68;;;1.63;;
35522;SDS011;61478;50.820;4.330;2023-08-06T03:59:39;5.35;;;1.33;;
35522;SDS011;61478;50.820;4.330;2023-08-06T04:02:05;7.25;;;1.73;;
35522;SDS011;61478;50.820;4.330;2023-08-06T04:04:31;5.38;;;1.75;;
35522;SDS011;61478;50.820;4.330;2023-08-06T04:06:57;5.60;;;1.85;;
35522;SDS011;61478;50.820;4.330;2023-08-06T04:09:23;2.10;;;1.13;;
35522;SDS011;61478;50.820;4.330;2023-08-06T04:11:48;3.90;;;1.33;;
35522;SDS011;61478;50.820;4.330;2023-08-06T04:14:14;3.95;;;1.30;;
35522;SDS011;61478;50.820;4.330;2023-08-06T04:16:40;3.05;;;1.70;;
35522;SDS011;61478;50.820;4.330;2023-08-06T04:19:06;2.55;;;1.23;;
35522;SDS011;61478;50.820;4.330;2023-08-06T04:21:32;3.65;;;1.50;;
35522;SDS011;61478;50.820;4.330;2023-08-06T04:23:57;8.57;;;1.77;;
35522;SDS011;61478;50.820;4.330;2023-08-06T04:26:23;2.92;;;1.83;;
35522;SDS011;61478;50.820;4.330;2023-08-06T04:28:49;8.05;;;2.15;;
35522;SDS011;61478;50.820;4.330;2023-08-06T04:31:15;10.48;;;2.53;;
35522;SDS011;61478;50.820;4.330;2023-08-06T04:33:40;4.72;;;2.03;;
35522;SDS011;61478;50.820;4.330;2023-08-06T04:36:06;5.72;;;2.00;;
35522;SDS011;61478;50.820;4.330;2023-08-06T04:38:32;4.47;;;2.20;;
35522;SDS011;61478;50.820;4.330;2023-08-06T04:40:58;6.18;;;2.10;;
35522;SDS011;61478;50.820;4.330;2023-08-06T04:43:24;4.53;;;2.15;;
35522;SDS011;61478;50.820;4.330;2023-08-06T04:45:50;4.43;;;2.20;;
35522;SDS011;61478;50.820;4.330;2023-08-06T04:48:19;7.32;;;2.58;;
35522;SDS011;61478;50.820;4.330;2023-08-06T04:50:50;6.10;;;2.58;;
35522;SDS011;61478;50.820;4.330;2023-08-06T04:53:16;5.20;;;3.17;;
35522;SDS011;61478;50.820;4.330;2023-08-06T04:55:42;4.57;;;2.72;;
35522;SDS011;61478;50.820;4.330;2023-08-06T04:58:11;7.97;;;2.90;;
35522;SDS011;61478;50.820;4.330;2023-08-06T05:00:38;5.07;;;3.63;;
35522;SDS011;61478;50.820;4.330;2023-08-06T05:03:04;6.47;;;3.72;;
35522;SDS011;61478;50.820;4.330;2023-08-06T05:05:31;6.50;;;3.05;;
35522;SDS011;61478;50.820;4.330;2023-08-06T05:07:57;7.63;;;3.05;;
35522;SDS011;61478;50.820;4.330;2023-08-06T05:10:26;13.00;;;3.38;;
35522;SDS011;61478;50.820;4.330;2023-08-06T05:12:52;6.90;;;3.45;;
35522;SDS011;61478;50.820;4.330;2023-08-06T05:15:19;8.10;;;3.70;;
35522;SDS011;61478;50.820;4.330;2023-08-06T05:17:45;6.50;;;3.78;;
35522;SDS011;61478;50.820;4.330;2023-08-06T05:20:11;6.25;;;3.40;;
35522;SDS011;61478;50.820;4.330;2023-08-06T05:22:37;5.28;;;2.92;;
35522;SDS011;61478;50.820;4.330;2023-08-06T05:25:03;9.32;;;3.15;;
35522;SDS011;61478;50.820;4.330;2023-08-06T05:27:29;8.70;;;3.85;;
35522;SDS011;61478;50.820;4.330;2023-08-06T05:29:55;9.80;;;3.85;;
35522;SDS011;61478;50.820;4.330;2023-08-06T05:32:22;7.97;;;3.72;;
35522;SDS011;61478;50.820;4.330;2023-08-06T05:34:48;17.13;;;3.80;;
35522;SDS011;61478;50.820;4.330;2023-08-06T05:37:14;9.75;;;4.35;;
35522;SDS011;61478;50.820;4.330;2023-08-06T05:39:39;9.73;;;4.30;;
35522;SDS011;61478;50.820;4.330;2023-08-06T05:42:06;10.82;;;4.55;;
35522;SDS011;61478;50.820;4.330;2023-08-06T05:44:32;11.30;;;4.72;;
35522;SDS011;61478;50.820;4.330;2023-08-06T05:46:58;15.10;;;4.60;;
35522;SDS011;61478;50.820;4.330;2023-08-06T05:49:24;10.77;;;4.53;;
35522;SDS011;61478;50.820;4.330;2023-08-06T05:51:50;11.27;;;4.47;;
35522;SDS011;61478;50.820;4.330;2023-08-06T05:54:18;14.05;;;4.75;;
35522;SDS011;61478;50.820;4.330;2023-08-06T05:56:45;14.10;;;4.68;;
35522;SDS011;61478;50.820;4.330;2023-08-06T05:59:11;10.77;;;4.88;;
35522;SDS011;61478;50.820;4.330;2023-08-06T06:01:37;16.00;;;4.55;;
35522;SDS011;61478;50.820;4.330;2023-08-06T06:04:02;11.32;;;4.38;;
35522;SDS011;61478;50.820;4.330;2023-08-06T06:06:28;10.80;;;4.68;;
35522;SDS011;61478;50.820;4.330;2023-08-06T06:08:55;14.15;;;4.07;;
35522;SDS011;61478;50.820;4.330;2023-08-06T06:11:21;10.43;;;4.68;;
35522;SDS011;61478;50.820;4.330;2023-08-06T06:13:50;12.85;;;4.07;;
35522;SDS011;61478;50.820;4.330;2023-08-06T06:16:19;9.70;;;4.28;;
35522;SDS011;61478;50.820;4.330;2023-08-06T06:18:45;9.35;;;3.95;;
35522;SDS011;61478;50.820;4.330;2023-08-06T06:21:11;14.32;;;4.60;;
35522;SDS011;61478;50.820;4.330;2023-08-06T06:23:37;13.45;;;4.78;;
35522;SDS011;61478;50.820;4.330;2023-08-06T06:26:03;13.65;;;4.50;;
35522;SDS011;61478;50.820;4.330;2023-08-06T06:28:29;13.38;;;4.25;;
35522;SDS011;61478;50.820;4.330;2023-08-06T06:30:59;9.77;;;4.03;;
35522;SDS011;61478;50.820;4.330;2023-08-06T06:33:26;13.15;;;4.10;;
35522;SDS011;61478;50.820;4.330;2023-08-06T06:35:52;9.13;;;4.20;;
35522;SDS011;61478;50.820;4.330;2023-08-06T06:38:18;9.32;;;4.30;;
35522;SDS011;61478;50.820;4.330;2023-08-06T06:40:46;13.20;;;5.30;;
35522;SDS011;61478;50.820;4.330;2023-08-06T06:43:19;9.75;;;4.82;;
35522;SDS011;61478;50.820;4.330;2023-08-06T06:45:45;14.98;;;5.45;;
35522;SDS011;61478;50.820;4.330;2023-08-06T06:48:11;16.13;;;5.35;;
35522;SDS011;61478;50.820;4.330;2023-08-06T06:50:36;14.40;;;4.65;;
35522;SDS011;61478;50.820;4.330;2023-08-06T06:53:04;13.75;;;5.10;;
35522;SDS011;61478;50.820;4.330;2023-08-06T06:55:30;15.30;;;5.32;;
35522;SDS011;61478;50.820;4.330;2023-08-06T06:57:56;11.48;;;3.78;;
35522;SDS011;61478;50.820;4.330;2023-08-06T07:00:22;11.60;;;3.80;;
35522;SDS011;61478;50.820;4.330;2023-08-06T07:02:48;10.90;;;3.50;;
35522;SDS011;61478;50.820;4.330;2023-08-06T07:05:14;6.88;;;2.92;;
35522;SDS011;61478;50.820;4.330;2023-08-06T07:07:40;14.10;;;3.30;;
35522;SDS011;61478;50.820;4.330;2023-08-06T07:10:05;10.80;;;3.00;;
35522;SDS011;61478;50.820;4.330;2023-08-06T07:12:32;8.70;;;2.95;;
35522;SDS011;61478;50.820;4.330;2023-08-06T07:14:58;9.05;;;2.58;;
35522;SDS011;61478;50.820;4.330;2023-08-06T07:17:24;10.88;;;3.13;;
35522;SDS011;61478;50.820;4.330;2023-08-06T07:19:49;12.45;;;3.17;;
35522;SDS011;61478;50.820;4.330;2023-08-06T07:22:15;11.63;;;2.78;;
35522;SDS011;61478;50.820;4.330;2023-08-06T07:24:41;6.97;;;2.00;;
35522;SDS011;61478;50.820;4.330;2023-08-06T07:27:07;9.32;;;2.95;;
35522;SDS011;61478;50.820;4.330;2023-08-06T07:29:33;8.60;;;2.53;;
35522;SDS011;61478;50.820;4.330;2023-08-06T07:31:58;11.05;;;3.20;;
35522;SDS011;61478;50.820;4.330;2023-08-06T07:34:24;16.48;;;2.72;;
35522;SDS011;61478;50.820;4.330;2023-08-06T07:36:50;10.07;;;2.60;;
35522;SDS011;61478;50.820;4.330;2023-08-06T07:39:16;14.18;;;2.13;;
35522;SDS011;61478;50.820;4.330;2023-08-06T07:41:42;9.98;;;2.38;;
35522;SDS011;61478;50.820;4.330;2023-08-06T07:44:08;9.95;;;2.38;;
35522;SDS011;61478;50.820;4.330;2023-08-06T07:46:34;10.00;;;2.38;;
35522;SDS011;61478;50.820;4.330;2023-08-06T07:49:00;12.48;;;2.58;;
35522;SDS011;61478;50.820;4.330;2023-08-06T07:51:26;8.65;;;2.38;;
35522;SDS011;61478;50.820;4.330;2023-08-06T07:53:51;13.50;;;3.10;;
35522;SDS011;61478;50.820;4.330;2023-08-06T07:56:17;14.35;;;2.22;;
35522;SDS011;61478;50.820;4.330;2023-08-06T07:58:43;10.63;;;2.13;;
35522;SDS011;61478;50.820;4.330;2023-08-06T08:01:09;9.93;;;2.58;;
35522;SDS011;61478;50.820;4.330;2023-08-06T08:03:35;11.82;;;3.20;;
35522;SDS011;61478;50.820;4.330;2023-08-06T08:06:01;12.93;;;2.85;;
35522;SDS011;61478;50.820;4.330;2023-08-06T08:08:27;10.43;;;2.20;;
35522;SDS011;61478;50.820;4.330;2023-08-06T08:10:53;9.45;;;2.60;;
35522;SDS011;61478;50.820;4.330;2023-08-06T08:13:20;10.73;;;2.90;;
35522;SDS011;61478;50.820;4.330;2023-08-06T08:15:46;11.48;;;2.92;;
35522;SDS011;61478;50.820;4.330;2023-08-06T08:18:12;11.07;;;2.95;;
35522;SDS011;61478;50.820;4.330;2023-08-06T08:20:38;11.38;;;3.03;;
35522;SDS011;61478;50.820;4.330;2023-08-06T08:23:04;13.18;;;2.78;;
35522;SDS011;61478;50.820;4.330;2023-08-06T08:25:30;13.18;;;3.10;;
35522;SDS011;61478;50.820;4.330;2023-08-06T08:27:56;13.10;;;3.42;;
35522;SDS011;61478;50.820;4.330;2023-08-06T08:30:22;8.57;;;2.42;;
35522;SDS011;61478;50.820;4.330;2023-08-06T08:32:50;13.77;;;3.28;;
35522;SDS011;61478;50.820;4.330;2023-08-06T08:35:16;10.90;;;2.67;;
35522;SDS011;61478;50.820;4.330;2023-08-06T08:37:42;16.25;;;3.58;;
35522;SDS011;61478;50.820;4.330;2023-08-06T08:40:09;14.45;;;3.05;;
35522;SDS011;61478;50.820;4.330;2023-08-06T08:42:36;13.82;;;2.63;;
35522;SDS011;61478;50.820;4.330;2023-08-06T08:45:02;11.13;;;2.50;;
35522;SDS011;61478;50.820;4.330;2023-08-06T08:47:31;10.23;;;2.58;;
35522;SDS011;61478;50.820;4.330;2023-08-06T08:49:57;8.82;;;2.40;;
35522;SDS011;61478;50.820;4.330;2023-08-06T08:52:25;13.25;;;3.28;;
35522;SDS011;61478;50.820;4.330;2023-08-06T08:54:55;11.15;;;2.83;;
35522;SDS011;61478;50.820;4.330;2023-08-06T08:57:21;12.25;;;3.33;;
35522;SDS011;61478;50.820;4.330;2023-08-06T08:59:47;15.32;;;3.28;;
35522;SDS011;61478;50.820;4.330;2023-08-06T09:02:13;13.25;;;3.45;;
35522;SDS011;61478;50.820;4.330;2023-08-06T09:04:41;14.70;;;3.38;;
35522;SDS011;61478;50.820;4.330;2023-08-06T09:07:09;12.07;;;3.70;;
35522;SDS011;61478;50.820;4.330;2023-08-06T09:09:38;11.00;;;2.83;;
35522;SDS011;61478;50.820;4.330;2023-08-06T09:12:15;12.75;;;2.83;;
35522;SDS011;61478;50.820;4.330;2023-08-06T09:14:42;17.60;;;3.35;;
35522;SDS011;61478;50.820;4.330;2023-08-06T09:17:11;12.00;;;2.92;;
35522;SDS011;61478;50.820;4.330;2023-08-06T09:19:43;14.27;;;3.13;;
35522;SDS011;61478;50.820;4.330;2023-08-06T09:22:11;11.65;;;3.33;;
35522;SDS011;61478;50.820;4.330;2023-08-06T09:24:39;20.88;;;3.40;;
35522;SDS011;61478;50.820;4.330;2023-08-06T09:27:10;11.48;;;2.75;;
35522;SDS011;61478;50.820;4.330;2023-08-06T09:29:39;14.55;;;3.15;;
35522;SDS011;61478;50.820;4.330;2023-08-06T09:32:08;12.43;;;3.08;;
35522;SDS011;61478;50.820;4.330;2023-08-06T09:34:34;11.93;;;2.92;;
35522;SDS011;61478;50.820;4.330;2023-08-06T09:37:00;9.18;;;3.05;;
35522;SDS011;61478;50.820;4.330;2023-08-06T09:39:30;14.55;;;2.88;;
35522;SDS011;61478;50.820;4.330;2023-08-06T09:41:57;16.35;;;3.58;;
35522;SDS011;61478;50.820;4.330;2023-08-06T09:44:25;13.32;;;3.55;;
35522;SDS011;61478;50.820;4.330;2023-08-06T09:46:52;11.10;;;2.85;;
35522;SDS011;61478;50.820;4.330;2023-08-06T09:49:26;12.05;;;3.47;;
35522;SDS011;61478;50.820;4.330;2023-08-06T09:51:53;12.70;;;3.20;;
35522;SDS011;61478;50.820;4.330;2023-08-06T09:54:26;13.10;;;3.20;;
35522;SDS011;61478;50.820;4.330;2023-08-06T09:56:54;11.65;;;3.92;;
35522;SDS011;61478;50.820;4.330;2023-08-06T09:59:20;15.52;;;3.35;;
35522;SDS011;61478;50.820;4.330;2023-08-06T10:01:46;11.10;;;3.10;;
35522;SDS011;61478;50.820;4.330;2023-08-06T10:04:13;11.07;;;3.13;;
35522;SDS011;61478;50.820;4.330;2023-08-06T10:06:43;12.13;;;3.45;;
35522;SDS011;61478;50.820;4.330;2023-08-06T10:09:13;11.77;;;3.15;;
35522;SDS011;61478;50.820;4.330;2023-08-06T10:11:39;9.65;;;2.67;;
35522;SDS011;61478;50.820;4.330;2023-08-06T10:14:08;7.57;;;3.05;;
35522;SDS011;61478;50.820;4.330;2023-08-06T10:16:45;11.50;;;3.03;;
35522;SDS011;61478;50.820;4.330;2023-08-06T10:19:12;12.13;;;3.10;;
35522;SDS011;61478;50.820;4.330;2023-08-06T10:21:39;11.05;;;2.92;;
35522;SDS011;61478;50.820;4.330;2023-08-06T10:24:08;11.50;;;2.80;;
35522;SDS011;61478;50.820;4.330;2023-08-06T10:26:39;8.30;;;3.03;;
35522;SDS011;61478;50.820;4.330;2023-08-06T10:32:08;11.13;;;2.70;;
35522;SDS011;61478;50.820;4.330;2023-08-06T10:34:55;9.23;;;2.45;;
35522;SDS011;61478;50.820;4.330;2023-08-06T10:37:36;12.98;;;3.03;;
35522;SDS011;61478;50.820;4.330;2023-08-06T10:40:02;13.43;;;2.58;;
35522;SDS011;61478;50.820;4.330;2023-08-06T10:42:31;9.73;;;3.05;;
35522;SDS011;61478;50.820;4.330;2023-08-06T10:45:13;11.13;;;3.40;;
35522;SDS011;61478;50.820;4.330;2023-08-06T10:47:44;12.20;;;3.45;;
35522;SDS011;61478;50.820;4.330;2023-08-06T10:50:11;17.15;;;3.40;;
35522;SDS011;61478;50.820;4.330;2023-08-06T10:52:44;12.90;;;3.22;;
35522;SDS011;61478;50.820;4.330;2023-08-06T10:55:10;7.25;;;2.35;;
35522;SDS011;61478;50.820;4.330;2023-08-06T10:57:36;11.13;;;2.85;;
35522;SDS011;61478;50.820;4.330;2023-08-06T11:00:04;10.60;;;2.65;;
35522;SDS011;61478;50.820;4.330;2023-08-06T11:02:37;9.05;;;2.83;;
35522;SDS011;61478;50.820;4.330;2023-08-06T11:05:10;10.30;;;2.70;;
35522;SDS011;61478;50.820;4.330;2023-08-06T11:07:36;11.90;;;3.47;;
35522;SDS011;61478;50.820;4.330;2023-08-06T11:10:04;15.02;;;2.97;;
35522;SDS011;61478;50.820;4.330;2023-08-06T11:12:31;8.70;;;2.80;;
35522;SDS011;61478;50.820;4.330;2023-08-06T11:14:58;13.70;;;3.03;;
35522;SDS011;61478;50.820;4.330;2023-08-06T11:17:25;14.40;;;2.92;;
35522;SDS011;61478;50.820;4.330;2023-08-06T11:19:53;9.43;;;2.83;;
35522;SDS011;61478;50.820;4.330;2023-08-06T11:22:20;13.75;;;3.42;;
35522;SDS011;61478;50.820;4.330;2023-08-06T11:24:47;7.60;;;2.80;;
35522;SDS011;61478;50.820;4.330;2023-08-06T11:27:16;5.97;;;2.10;;
35522;SDS011;61478;50.820;4.330;2023-08-06T11:29:43;9.55;;;2.35;;
35522;SDS011;61478;50.820;4.330;2023-08-06T11:32:09;10.10;;;2.45;;
35522;SDS011;61478;50.820;4.330;2023-08-06T11:34:36;7.85;;;2.85;;
35522;SDS011;61478;50.820;4.330;2023-08-06T11:37:03;7.40;;;2.78;;
35522;SDS011;61478;50.820;4.330;2023-08-06T11:39:36;10.55;;;2.95;;
35522;SDS011;61478;50.820;4.330;2023-08-06T11:42:04;9.63;;;2.55;;
35522;SDS011;61478;50.820;4.330;2023-08-06T11:44:31;9.55;;;2.58;;
35522;SDS011;61478;50.820;4.330;2023-08-06T11:46:58;7.82;;;2.33;;
35522;SDS011;61478;50.820;4.330;2023-08-06T11:52:14;7.78;;;2.20;;
35522;SDS011;61478;50.820;4.330;2023-08-06T11:54:41;9.75;;;2.35;;
35522;SDS011;61478;50.820;4.330;2023-08-06T11:57:07;11.13;;;2.92;;
35522;SDS011;61478;50.820;4.330;2023-08-06T11:59:34;6.95;;;1.88;;
35522;SDS011;61478;50.820;4.330;2023-08-06T12:02:01;6.68;;;2.30;;
35522;SDS011;61478;50.820;4.330;2023-08-06T12:04:28;7.82;;;2.10;;
35522;SDS011;61478;50.820;4.330;2023-08-06T12:06:54;10.60;;;2.35;;
35522;SDS011;61478;50.820;4.330;2023-08-06T12:09:20;10.20;;;2.80;;
35522;SDS011;61478;50.820;4.330;2023-08-06T12:11:46;10.55;;;2.47;;
35522;SDS011;61478;50.820;4.330;2023-08-06T12:14:12;9.35;;;3.13;;
35522;SDS011;61478;50.820;4.330;2023-08-06T12:16:37;10.68;;;2.22;;
35522;SDS011;61478;50.820;4.330;2023-08-06T12:19:03;7.65;;;3.17;;
35522;SDS011;61478;50.820;4.330;2023-08-06T12:21:29;9.73;;;2.97;;
35522;SDS011;61478;50.820;4.330;2023-08-06T12:23:55;8.10;;;2.13;;
35522;SDS011;61478;50.820;4.330;2023-08-06T12:26:21;9.85;;;2.28;;
35522;SDS011;61478;50.820;4.330;2023-08-06T12:28:47;11.63;;;2.30;;
35522;SDS011;61478;50.820;4.330;2023-08-06T12:31:14;16.25;;;3.13;;
35522;SDS011;61478;50.820;4.330;2023-08-06T12:33:40;11.35;;;2.60;;
35522;SDS011;61478;50.820;4.330;2023-08-06T12:36:06;12.35;;;3.10;;
35522;SDS011;61478;50.820;4.330;2023-08-06T12:38:32;9.20;;;2.85;;
35522;SDS011;61478;50.820;4.330;2023-08-06T12:40:59;9.95;;;3.20;;
35522;SDS011;61478;50.820;4.330;2023-08-06T12:43:24;14.93;;;3.75;;
35522;SDS011;61478;50.820;4.330;2023-08-06T12:45:50;11.88;;;2.88;;
35522;SDS011;61478;50.820;4.330;2023-08-06T12:48:16;6.45;;;1.73;;
35522;SDS011;61478;50.820;4.330;2023-08-06T12:50:42;6.55;;;1.90;;
35522;SDS011;61478;50.820;4.330;2023-08-06T12:53:08;8.30;;;2.70;;
35522;SDS011;61478;50.820;4.330;2023-08-06T12:55:34;11.43;;;2.83;;
35522;SDS011;61478;50.820;4.330;2023-08-06T12:57:59;9.35;;;2.40;;
35522;SDS011;61478;50.820;4.330;2023-08-06T13:00:25;7.78;;;2.50;;
35522;SDS011;61478;50.820;4.330;2023-08-06T13:02:52;10.15;;;2.42;;
35522;SDS011;61478;50.820;4.330;2023-08-06T13:05:18;13.07;;;3.08;;
35522;SDS011;61478;50.820;4.330;2023-08-06T13:07:44;11.70;;;3.05;;
35522;SDS011;61478;50.820;4.330;2023-08-06T13:10:10;14.18;;;3.22;;
35522;SDS011;61478;50.820;4.330;2023-08-06T13:12:36;10.57;;;2.75;;
35522;SDS011;61478;50.820;4.330;2023-08-06T13:15:02;13.38;;;3.08;;
35522;SDS011;61478;50.820;4.330;2023-08-06T13:17:28;11.00;;;3.83;;
35522;SDS011;61478;50.820;4.330;2023-08-06T13:19:54;9.95;;;3.20;;
35522;SDS011;61478;50.820;4.330;2023-08-06T13:22:20;12.00;;;3.72;;
35522;SDS011;61478;50.820;4.330;2023-08-06T13:24:46;10.75;;;2.70;;
35522;SDS011;61478;50.820;4.330;2023-08-06T13:27:12;13.45;;;3.00;;
35522;SDS011;61478;50.820;4.330;2023-08-06T13:29:37;10.07;;;3.55;;
35522;SDS011;61478;50.820;4.330;2023-08-06T13:32:03;8.73;;;2.70;;
35522;SDS011;61478;50.820;4.330;2023-08-06T13:34:29;7.80;;;2.50;;
35522;SDS011;61478;50.820;4.330;2023-08-06T13:36:55;10.88;;;2.40;;
35522;SDS011;61478;50.820;4.330;2023-08-06T13:39:21;11.90;;;2.83;;
35522;SDS011;61478;50.820;4.330;2023-08-06T13:41:47;9.43;;;2.58;;
35522;SDS011;61478;50.820;4.330;2023-08-06T13:44:13;9.23;;;2.90;;
35522;SDS011;61478;50.820;4.330;2023-08-06T13:46:39;10.43;;;2.53;;
35522;SDS011;61478;50.820;4.330;2023-08-06T13:49:05;9.57;;;2.10;;
35522;SDS011;61478;50.820;4.330;2023-08-06T13:51:31;10.90;;;2.88;;
35522;SDS011;61478;50.820;4.330;2023-08-06T13:53:59;13.45;;;2.65;;
35522;SDS011;61478;50.820;4.330;2023-08-06T13:56:25;7.05;;;2.40;;
35522;SDS011;61478;50.820;4.330;2023-08-06T13:58:51;9.73;;;2.35;;
35522;SDS011;61478;50.820;4.330;2023-08-06T14:01:17;10.25;;;2.30;;
35522;SDS011;61478;50.820;4.330;2023-08-06T14:03:45;10.27;;;2.28;;
35522;SDS011;61478;50.820;4.330;2023-08-06T14:06:11;9.40;;;2.40;;
35522;SDS011;61478;50.820;4.330;2023-08-06T14:08:37;7.45;;;2.35;;
35522;SDS011;61478;50.820;4.330;2023-08-06T14:11:03;14.52;;;2.97;;
35522;SDS011;61478;50.820;4.330;2023-08-06T14:13:31;12.00;;;1.98;;
35522;SDS011;61478;50.820;4.330;2023-08-06T14:15:57;7.72;;;2.13;;
35522;SDS011;61478;50.820;4.330;2023-08-06T14:18:22;9.55;;;3.17;;
35522;SDS011;61478;50.820;4.330;2023-08-06T14:20:48;12.38;;;2.45;;
35522;SDS011;61478;50.820;4.330;2023-08-06T14:23:14;10.00;;;2.45;;
35522;SDS011;61478;50.820;4.330;2023-08-06T14:25:40;7.90;;;1.98;;
35522;SDS011;61478;50.820;4.330;2023-08-06T14:28:06;6.05;;;2.35;;
35522;SDS011;61478;50.820;4.330;2023-08-06T14:30:32;13.65;;;3.20;;
35522;SDS011;61478;50.820;4.330;2023-08-06T14:32:58;8.60;;;2.42;;
35522;SDS011;61478;50.820;4.330;2023-08-06T14:35:25;11.40;;;2.53;;
35522;SDS011;61478;50.820;4.330;2023-08-06T14:37:51;11.27;;;2.75;;
35522;SDS011;61478;50.820;4.330;2023-08-06T14:40:17;10.05;;;2.78;;
35522;SDS011;61478;50.820;4.330;2023-08-06T14:42:43;10.57;;;2.53;;
35522;SDS011;61478;50.820;4.330;2023-08-06T14:45:09;13.45;;;2.90;;
35522;SDS011;61478;50.820;4.330;2023-08-06T14:47:35;11.68;;;3.53;;